sensor_id;sensor_type;location;lat;lon;timestamp;P1;durP1;ratioP1;P2;durP2;ratioP2
57832;SDS011;43667;53.036;6.740;2023-02-28T00:00:10;12.55;;;4.65;;
57832;SDS011;43667;53.036;6.740;2023-02-28T00:02:37;9.05;;;5.43;;
57832;SDS011;43667;53.036;6.740;2023-02-28T00:05:04;12.40;;;4.40;;
57832;SDS011;43667;53.036;6.740;2023-02-28T00:07:30;12.10;;;4.88;;
57832;SDS011;43667;53.036;6.740;2023-02-28T00:09:56;7.40;;;4.05;;
57832;SDS011;43667;53.036;6.740;2023-02-28T00:12:22;7.28;;;4.43;;
57832;SDS011;43667;53.036;6.740;2023-02-28T00:14:48;10.50;;;4.85;;
57832;SDS011;43667;53.036;6.740;2023-02-28T00:17:14;8.32;;;4.45;;
57832;SDS011;43667;53.036;6.740;2023-02-28T00:19:41;9.10;;;4.47;;
57832;SDS011;43667;53.036;6.740;2023-02-28T00:22:06;9.98;;;4.05;;
57832;SDS011;43667;53.036;6.740;2023-02-28T00:24:32;8.82;;;4.18;;
57832;SDS011;43667;53.036;6.740;2023-02-28T00:26:58;11.02;;;3.92;;
57832;SDS011;43667;53.036;6.740;2023-02-28T00:29:23;12.10;;;4.28;;
57832;SDS011;43667;53.036;6.740;2023-02-28T00:31:49;10.50;;;4.30;;
57832;SDS011;43667;53.036;6.740;2023-02-28T00:34:14;13.85;;;5.22;;
57832;SDS011;43667;53.036;6.740;2023-02-28T00:36:40;8.73;;;4.50;;
57832;SDS011;43667;53.036;6.740;2023-02-28T00:39:10;8.13;;;4.32;;
57832;SDS011;43667;53.036;6.740;2023-02-28T00:41:36;11.10;;;4.88;;
57832;SDS011;43667;53.036;6.740;2023-02-28T00:44:01;8.13;;;4.22;;
57832;SDS011;43667;53.036;6.740;2023-02-28T00:46:27;7.47;;;4.18;;
57832;SDS011;43667;53.036;6.740;2023-02-28T00:48:52;12.57;;;4.43;;
57832;SDS011;43667;53.036;6.740;2023-02-28T00:51:18;11.88;;;4.80;;
57832;SDS011;43667;53.036;6.740;2023-02-28T00:53:44;9.40;;;4.25;;
57832;SDS011;43667;53.036;6.740;2023-02-28T00:56:09;10.18;;;4.60;;
57832;SDS011;43667;53.036;6.740;2023-02-28T00:58:35;10.93;;;4.75;;
57832;SDS011;43667;53.036;6.740;2023-02-28T01:01:00;10.73;;;4.70;;
57832;SDS011;43667;53.036;6.740;2023-02-28T01:03:26;11.98;;;4.90;;
57832;SDS011;43667;53.036;6.740;2023-02-28T01:05:52;10.23;;;4.72;;
57832;SDS011;43667;53.036;6.740;2023-02-28T01:08:20;9.52;;;5.20;;
57832;SDS011;43667;53.036;6.740;2023-02-28T01:10:46;12.95;;;4.95;;
57832;SDS011;43667;53.036;6.740;2023-02-28T01:13:12;11.93;;;4.82;;
57832;SDS011;43667;53.036;6.740;2023-02-28T01:15:39;12.82;;;5.80;;
57832;SDS011;43667;53.036;6.740;2023-02-28T01:18:08;10.38;;;4.60;;
57832;SDS011;43667;53.036;6.740;2023-02-28T01:20:36;11.18;;;4.25;;
57832;SDS011;43667;53.036;6.740;2023-02-28T01:23:02;12.07;;;4.70;;
57832;SDS011;43667;53.036;6.740;2023-02-28T01:25:27;8.98;;;4.25;;
57832;SDS011;43667;53.036;6.740;2023-02-28T01:27:53;8.77;;;4.47;;
57832;SDS011;43667;53.036;6.740;2023-02-28T01:30:19;8.07;;;4.10;;
57832;SDS011;43667;53.036;6.740;2023-02-28T01:32:44;7.63;;;4.63;;
57832;SDS011;43667;53.036;6.740;2023-02-28T01:35:10;12.02;;;4.78;;
57832;SDS011;43667;53.036;6.740;2023-02-28T01:37:36;10.00;;;4.45;;
57832;SDS011;43667;53.036;6.740;2023-02-28T01:40:02;11.85;;;4.57;;
57832;SDS011;43667;53.036;6.740;2023-02-28T01:42:28;12.25;;;4.95;;
57832;SDS011;43667;53.036;6.740;2023-02-28T01:45:01;9.85;;;4.80;;
57832;SDS011;43667;53.036;6.740;2023-02-28T01:48:06;11.98;;;4.72;;
57832;SDS011;43667;53.036;6.740;2023-02-28T01:50:38;11.52;;;4.53;;
57832;SDS011;43667;53.036;6.740;2023-02-28T01:53:07;9.20;;;4.50;;
57832;SDS011;43667;53.036;6.740;2023-02-28T01:55:38;9.68;;;4.95;;
57832;SDS011;43667;53.036;6.740;2023-02-28T01:58:06;8.48;;;4.72;;
57832;SDS011;43667;53.036;6.740;2023-02-28T02:00:34;10.15;;;5.43;;
57832;SDS011;43667;53.036;6.740;2023-02-28T02:03:01;9.20;;;4.45;;
57832;SDS011;43667;53.036;6.740;2023-02-28T02:05:33;14.75;;;5.20;;
57832;SDS011;43667;53.036;6.740;2023-02-28T02:08:03;8.20;;;4.90;;
57832;SDS011;43667;53.036;6.740;2023-02-28T02:10:35;11.00;;;5.20;;
57832;SDS011;43667;53.036;6.740;2023-02-28T02:23:56;16.85;;;7.20;;
57832;SDS011;43667;53.036;6.740;2023-02-28T02:32:14;9.40;;;6.25;;
57832;SDS011;43667;53.036;6.740;2023-02-28T02:34:46;11.30;;;6.38;;
57832;SDS011;43667;53.036;6.740;2023-02-28T02:40:12;15.25;;;7.25;;
57832;SDS011;43667;53.036;6.740;2023-02-28T02:42:51;13.85;;;7.82;;
57832;SDS011;43667;53.036;6.740;2023-02-28T02:45:28;15.95;;;7.35;;
57832;SDS011;43667;53.036;6.740;2023-02-28T02:48:02;15.10;;;7.50;;
57832;SDS011;43667;53.036;6.740;2023-02-28T02:50:33;18.05;;;7.82;;
57832;SDS011;43667;53.036;6.740;2023-02-28T02:53:20;11.15;;;7.03;;
57832;SDS011;43667;53.036;6.740;2023-02-28T02:55:52;10.27;;;7.60;;
57832;SDS011;43667;53.036;6.740;2023-02-28T02:58:21;15.43;;;8.00;;
57832;SDS011;43667;53.036;6.740;2023-02-28T03:00:56;16.65;;;7.97;;
57832;SDS011;43667;53.036;6.740;2023-02-28T03:03:25;12.75;;;7.95;;
57832;SDS011;43667;53.036;6.740;2023-02-28T03:05:59;13.82;;;7.82;;
57832;SDS011;43667;53.036;6.740;2023-02-28T03:08:26;10.52;;;6.90;;
57832;SDS011;43667;53.036;6.740;2023-02-28T03:10:57;12.68;;;7.38;;
57832;SDS011;43667;53.036;6.740;2023-02-28T03:13:42;12.43;;;7.60;;
57832;SDS011;43667;53.036;6.740;2023-02-28T03:16:32;10.75;;;6.57;;
57832;SDS011;43667;53.036;6.740;2023-02-28T03:24:32;13.07;;;6.57;;
57832;SDS011;43667;53.036;6.740;2023-02-28T03:27:09;12.48;;;5.97;;
57832;SDS011;43667;53.036;6.740;2023-02-28T03:32:35;12.80;;;7.30;;
57832;SDS011;43667;53.036;6.740;2023-02-28T03:35:10;16.27;;;8.68;;
57832;SDS011;43667;53.036;6.740;2023-02-28T03:37:47;10.77;;;7.07;;
57832;SDS011;43667;53.036;6.740;2023-02-28T03:40:19;9.48;;;7.40;;
57832;SDS011;43667;53.036;6.740;2023-02-28T03:42:47;12.88;;;6.78;;
57832;SDS011;43667;53.036;6.740;2023-02-28T03:45:17;13.30;;;7.50;;
57832;SDS011;43667;53.036;6.740;2023-02-28T03:47:50;11.90;;;7.53;;
57832;SDS011;43667;53.036;6.740;2023-02-28T03:50:41;13.85;;;7.85;;
57832;SDS011;43667;53.036;6.740;2023-02-28T03:53:18;14.95;;;7.88;;
57832;SDS011;43667;53.036;6.740;2023-02-28T03:55:48;10.18;;;7.65;;
57832;SDS011;43667;53.036;6.740;2023-02-28T03:58:21;18.77;;;8.50;;
57832;SDS011;43667;53.036;6.740;2023-02-28T04:00:55;13.45;;;8.07;;
57832;SDS011;43667;53.036;6.740;2023-02-28T04:03:52;14.93;;;8.23;;
57832;SDS011;43667;53.036;6.740;2023-02-28T04:06:18;13.90;;;8.25;;
57832;SDS011;43667;53.036;6.740;2023-02-28T04:08:46;14.70;;;9.27;;
57832;SDS011;43667;53.036;6.740;2023-02-28T04:11:16;19.48;;;8.98;;
57832;SDS011;43667;53.036;6.740;2023-02-28T04:13:59;16.60;;;8.93;;
57832;SDS011;43667;53.036;6.740;2023-02-28T04:16:25;14.63;;;8.95;;
57832;SDS011;43667;53.036;6.740;2023-02-28T04:18:51;14.43;;;8.57;;
57832;SDS011;43667;53.036;6.740;2023-02-28T04:21:17;15.38;;;8.20;;
57832;SDS011;43667;53.036;6.740;2023-02-28T04:23:45;14.80;;;9.30;;
57832;SDS011;43667;53.036;6.740;2023-02-28T04:26:11;19.33;;;9.80;;
57832;SDS011;43667;53.036;6.740;2023-02-28T04:28:37;16.55;;;9.43;;
57832;SDS011;43667;53.036;6.740;2023-02-28T04:31:03;15.63;;;9.35;;
57832;SDS011;43667;53.036;6.740;2023-02-28T04:33:30;16.00;;;9.73;;
57832;SDS011;43667;53.036;6.740;2023-02-28T04:36:06;17.38;;;9.07;;
57832;SDS011;43667;53.036;6.740;2023-02-28T04:38:34;15.93;;;9.38;;
57832;SDS011;43667;53.036;6.740;2023-02-28T04:41:01;13.25;;;9.38;;
57832;SDS011;43667;53.036;6.740;2023-02-28T04:43:27;15.02;;;9.95;;
57832;SDS011;43667;53.036;6.740;2023-02-28T04:45:54;17.20;;;9.88;;
57832;SDS011;43667;53.036;6.740;2023-02-28T04:48:22;16.65;;;10.02;;
57832;SDS011;43667;53.036;6.740;2023-02-28T04:50:49;18.83;;;10.45;;
57832;SDS011;43667;53.036;6.740;2023-02-28T04:53:15;21.98;;;10.57;;
57832;SDS011;43667;53.036;6.740;2023-02-28T04:55:41;19.95;;;9.95;;
57832;SDS011;43667;53.036;6.740;2023-02-28T04:58:06;18.27;;;10.57;;
57832;SDS011;43667;53.036;6.740;2023-02-28T05:00:32;17.17;;;10.43;;
57832;SDS011;43667;53.036;6.740;2023-02-28T05:02:57;18.00;;;11.40;;
57832;SDS011;43667;53.036;6.740;2023-02-28T05:05:23;17.52;;;11.20;;
57832;SDS011;43667;53.036;6.740;2023-02-28T05:07:48;17.48;;;12.07;;
57832;SDS011;43667;53.036;6.740;2023-02-28T05:10:14;18.98;;;11.63;;
57832;SDS011;43667;53.036;6.740;2023-02-28T05:12:40;17.45;;;11.93;;
57832;SDS011;43667;53.036;6.740;2023-02-28T05:15:05;20.85;;;13.07;;
57832;SDS011;43667;53.036;6.740;2023-02-28T05:17:31;23.55;;;13.02;;
57832;SDS011;43667;53.036;6.740;2023-02-28T05:19:57;23.10;;;12.95;;
57832;SDS011;43667;53.036;6.740;2023-02-28T05:22:22;20.60;;;12.45;;
57832;SDS011;43667;53.036;6.740;2023-02-28T05:24:48;20.08;;;13.93;;
57832;SDS011;43667;53.036;6.740;2023-02-28T05:27:14;17.80;;;11.70;;
57832;SDS011;43667;53.036;6.740;2023-02-28T05:29:39;19.52;;;12.15;;
57832;SDS011;43667;53.036;6.740;2023-02-28T05:32:09;20.33;;;12.93;;
57832;SDS011;43667;53.036;6.740;2023-02-28T05:34:36;22.65;;;12.23;;
57832;SDS011;43667;53.036;6.740;2023-02-28T05:37:03;21.25;;;13.45;;
57832;SDS011;43667;53.036;6.740;2023-02-28T05:39:29;20.65;;;12.77;;
57832;SDS011;43667;53.036;6.740;2023-02-28T05:41:54;22.33;;;13.48;;
57832;SDS011;43667;53.036;6.740;2023-02-28T05:44:20;21.80;;;13.07;;
57832;SDS011;43667;53.036;6.740;2023-02-28T05:46:45;19.45;;;12.60;;
57832;SDS011;43667;53.036;6.740;2023-02-28T05:49:11;17.10;;;12.98;;
57832;SDS011;43667;53.036;6.740;2023-02-28T05:51:36;25.73;;;13.98;;
57832;SDS011;43667;53.036;6.740;2023-02-28T05:54:04;22.20;;;14.20;;
57832;SDS011;43667;53.036;6.740;2023-02-28T05:56:31;28.60;;;14.48;;
57832;SDS011;43667;53.036;6.740;2023-02-28T05:58:59;23.63;;;13.52;;
57832;SDS011;43667;53.036;6.740;2023-02-28T06:04:06;21.45;;;14.98;;
57832;SDS011;43667;53.036;6.740;2023-02-28T06:06:34;21.13;;;14.38;;
57832;SDS011;43667;53.036;6.740;2023-02-28T06:09:01;23.48;;;14.20;;
57832;SDS011;43667;53.036;6.740;2023-02-28T06:11:27;23.80;;;15.02;;
57832;SDS011;43667;53.036;6.740;2023-02-28T06:13:53;22.60;;;14.57;;
57832;SDS011;43667;53.036;6.740;2023-02-28T06:16:20;24.58;;;14.30;;
57832;SDS011;43667;53.036;6.740;2023-02-28T06:18:46;25.17;;;14.52;;
57832;SDS011;43667;53.036;6.740;2023-02-28T06:21:12;25.08;;;15.48;;
57832;SDS011;43667;53.036;6.740;2023-02-28T06:23:38;21.33;;;14.07;;
57832;SDS011;43667;53.036;6.740;2023-02-28T06:26:04;24.63;;;15.40;;
57832;SDS011;43667;53.036;6.740;2023-02-28T06:28:30;24.88;;;14.93;;
57832;SDS011;43667;53.036;6.740;2023-02-28T06:30:56;27.75;;;14.88;;
57832;SDS011;43667;53.036;6.740;2023-02-28T06:33:21;26.50;;;15.27;;
57832;SDS011;43667;53.036;6.740;2023-02-28T06:35:49;23.67;;;15.57;;
57832;SDS011;43667;53.036;6.740;2023-02-28T06:38:15;26.48;;;14.80;;
57832;SDS011;43667;53.036;6.740;2023-02-28T06:40:41;27.02;;;15.32;;
57832;SDS011;43667;53.036;6.740;2023-02-28T06:43:07;21.38;;;14.98;;
57832;SDS011;43667;53.036;6.740;2023-02-28T06:45:33;27.13;;;15.45;;
57832;SDS011;43667;53.036;6.740;2023-02-28T06:47:58;29.52;;;15.23;;
57832;SDS011;43667;53.036;6.740;2023-02-28T06:50:25;24.13;;;14.90;;
57832;SDS011;43667;53.036;6.740;2023-02-28T06:52:52;27.65;;;15.98;;
57832;SDS011;43667;53.036;6.740;2023-02-28T06:55:19;26.20;;;16.25;;
57832;SDS011;43667;53.036;6.740;2023-02-28T06:57:44;27.88;;;15.35;;
57832;SDS011;43667;53.036;6.740;2023-02-28T07:00:11;26.30;;;16.15;;
57832;SDS011;43667;53.036;6.740;2023-02-28T07:02:38;24.95;;;15.98;;
57832;SDS011;43667;53.036;6.740;2023-02-28T07:05:04;26.20;;;15.95;;
57832;SDS011;43667;53.036;6.740;2023-02-28T07:07:31;25.50;;;16.13;;
57832;SDS011;43667;53.036;6.740;2023-02-28T07:09:57;25.35;;;16.83;;
57832;SDS011;43667;53.036;6.740;2023-02-28T07:12:22;23.00;;;14.63;;
57832;SDS011;43667;53.036;6.740;2023-02-28T07:14:48;23.17;;;15.02;;
57832;SDS011;43667;53.036;6.740;2023-02-28T07:17:14;25.20;;;15.30;;
57832;SDS011;43667;53.036;6.740;2023-02-28T07:19:39;24.20;;;16.38;;
57832;SDS011;43667;53.036;6.740;2023-02-28T07:22:05;21.65;;;14.98;;
57832;SDS011;43667;53.036;6.740;2023-02-28T07:24:32;20.55;;;13.93;;
57832;SDS011;43667;53.036;6.740;2023-02-28T07:26:58;22.92;;;16.60;;
57832;SDS011;43667;53.036;6.740;2023-02-28T07:29:24;24.67;;;16.23;;
57832;SDS011;43667;53.036;6.740;2023-02-28T07:31:50;23.27;;;15.90;;
57832;SDS011;43667;53.036;6.740;2023-02-28T07:34:18;28.60;;;16.10;;
57832;SDS011;43667;53.036;6.740;2023-02-28T07:36:44;24.35;;;15.52;;
57832;SDS011;43667;53.036;6.740;2023-02-28T07:39:09;23.95;;;15.77;;
57832;SDS011;43667;53.036;6.740;2023-02-28T07:41:35;24.42;;;16.30;;
57832;SDS011;43667;53.036;6.740;2023-02-28T07:44:04;24.90;;;15.77;;
57832;SDS011;43667;53.036;6.740;2023-02-28T07:46:30;24.88;;;15.98;;
57832;SDS011;43667;53.036;6.740;2023-02-28T07:49:00;20.40;;;14.43;;
57832;SDS011;43667;53.036;6.740;2023-02-28T07:51:27;25.75;;;15.23;;
57832;SDS011;43667;53.036;6.740;2023-02-28T07:53:53;26.17;;;15.55;;
57832;SDS011;43667;53.036;6.740;2023-02-28T07:56:19;21.17;;;14.60;;
57832;SDS011;43667;53.036;6.740;2023-02-28T07:58:45;25.83;;;16.15;;
57832;SDS011;43667;53.036;6.740;2023-02-28T08:01:11;23.65;;;15.38;;
57832;SDS011;43667;53.036;6.740;2023-02-28T08:03:37;22.55;;;15.80;;
57832;SDS011;43667;53.036;6.740;2023-02-28T08:06:03;26.25;;;15.52;;
57832;SDS011;43667;53.036;6.740;2023-02-28T08:08:30;22.58;;;15.63;;
57832;SDS011;43667;53.036;6.740;2023-02-28T08:11:00;21.70;;;14.90;;
57832;SDS011;43667;53.036;6.740;2023-02-28T08:13:27;22.63;;;14.90;;
57832;SDS011;43667;53.036;6.740;2023-02-28T08:15:54;19.83;;;14.27;;
57832;SDS011;43667;53.036;6.740;2023-02-28T08:18:21;21.33;;;14.30;;
57832;SDS011;43667;53.036;6.740;2023-02-28T08:20:47;23.33;;;15.32;;
57832;SDS011;43667;53.036;6.740;2023-02-28T08:23:12;20.65;;;15.60;;
57832;SDS011;43667;53.036;6.740;2023-02-28T08:25:38;23.77;;;15.40;;
57832;SDS011;43667;53.036;6.740;2023-02-28T08:28:05;23.92;;;16.10;;
57832;SDS011;43667;53.036;6.740;2023-02-28T08:30:31;26.00;;;16.02;;
57832;SDS011;43667;53.036;6.740;2023-02-28T08:32:56;20.15;;;15.07;;
57832;SDS011;43667;53.036;6.740;2023-02-28T08:35:22;19.42;;;14.60;;
57832;SDS011;43667;53.036;6.740;2023-02-28T08:37:48;20.23;;;14.25;;
57832;SDS011;43667;53.036;6.740;2023-02-28T08:40:14;23.40;;;15.57;;
57832;SDS011;43667;53.036;6.740;2023-02-28T08:42:47;18.45;;;14.23;;
57832;SDS011;43667;53.036;6.740;2023-02-28T08:45:13;24.90;;;15.18;;
57832;SDS011;43667;53.036;6.740;2023-02-28T08:47:39;21.08;;;15.55;;
57832;SDS011;43667;53.036;6.740;2023-02-28T08:50:05;21.13;;;15.55;;
57832;SDS011;43667;53.036;6.740;2023-02-28T08:52:31;18.75;;;14.73;;
57832;SDS011;43667;53.036;6.740;2023-02-28T08:54:57;17.88;;;14.00;;
57832;SDS011;43667;53.036;6.740;2023-02-28T08:57:23;19.38;;;14.32;;
57832;SDS011;43667;53.036;6.740;2023-02-28T08:59:51;16.92;;;13.23;;
57832;SDS011;43667;53.036;6.740;2023-02-28T09:02:17;19.60;;;14.68;;
57832;SDS011;43667;53.036;6.740;2023-02-28T09:04:43;21.08;;;14.45;;
57832;SDS011;43667;53.036;6.740;2023-02-28T09:07:10;19.45;;;14.45;;
57832;SDS011;43667;53.036;6.740;2023-02-28T09:09:37;16.25;;;12.20;;
57832;SDS011;43667;53.036;6.740;2023-02-28T09:12:02;18.65;;;12.98;;
57832;SDS011;43667;53.036;6.740;2023-02-28T09:14:28;16.55;;;12.50;;
57832;SDS011;43667;53.036;6.740;2023-02-28T09:16:54;14.55;;;12.27;;
57832;SDS011;43667;53.036;6.740;2023-02-28T09:19:20;17.60;;;12.48;;
57832;SDS011;43667;53.036;6.740;2023-02-28T09:21:45;14.18;;;11.98;;
57832;SDS011;43667;53.036;6.740;2023-02-28T09:24:11;14.20;;;10.88;;
57832;SDS011;43667;53.036;6.740;2023-02-28T09:26:39;13.15;;;10.38;;
57832;SDS011;43667;53.036;6.740;2023-02-28T09:29:05;14.25;;;10.57;;
57832;SDS011;43667;53.036;6.740;2023-02-28T09:31:31;12.82;;;9.55;;
57832;SDS011;43667;53.036;6.740;2023-02-28T09:33:57;13.25;;;9.90;;
57832;SDS011;43667;53.036;6.740;2023-02-28T09:36:24;15.15;;;10.20;;
57832;SDS011;43667;53.036;6.740;2023-02-28T09:38:51;13.70;;;10.18;;
57832;SDS011;43667;53.036;6.740;2023-02-28T09:41:21;13.10;;;9.27;;
57832;SDS011;43667;53.036;6.740;2023-02-28T09:43:51;13.65;;;9.00;;
57832;SDS011;43667;53.036;6.740;2023-02-28T09:49:02;12.10;;;9.05;;
57832;SDS011;43667;53.036;6.740;2023-02-28T09:51:53;11.32;;;9.60;;
57832;SDS011;43667;53.036;6.740;2023-02-28T09:54:21;12.48;;;9.35;;
57832;SDS011;43667;53.036;6.740;2023-02-28T09:57:08;10.98;;;8.00;;
57832;SDS011;43667;53.036;6.740;2023-02-28T10:05:17;10.18;;;6.47;;
57832;SDS011;43667;53.036;6.740;2023-02-28T10:10:46;11.63;;;6.70;;
57832;SDS011;43667;53.036;6.740;2023-02-28T10:15:47;10.30;;;6.95;;
57832;SDS011;43667;53.036;6.740;2023-02-28T10:18:19;8.77;;;6.45;;
57832;SDS011;43667;53.036;6.740;2023-02-28T10:20:49;10.55;;;7.40;;
57832;SDS011;43667;53.036;6.740;2023-02-28T10:23:34;9.43;;;6.80;;
57832;SDS011;43667;53.036;6.740;2023-02-28T10:26:14;11.77;;;6.68;;
57832;SDS011;43667;53.036;6.740;2023-02-28T10:28:41;9.75;;;6.63;;
57832;SDS011;43667;53.036;6.740;2023-02-28T10:31:08;9.85;;;7.35;;
57832;SDS011;43667;53.036;6.740;2023-02-28T10:33:39;8.13;;;5.93;;
57832;SDS011;43667;53.036;6.740;2023-02-28T10:36:05;9.65;;;6.30;;
57832;SDS011;43667;53.036;6.740;2023-02-28T10:38:36;8.38;;;6.00;;
57832;SDS011;43667;53.036;6.740;2023-02-28T10:41:04;7.75;;;6.18;;
57832;SDS011;43667;53.036;6.740;2023-02-28T10:43:35;8.00;;;5.90;;
57832;SDS011;43667;53.036;6.740;2023-02-28T10:46:02;8.90;;;6.18;;
57832;SDS011;43667;53.036;6.740;2023-02-28T10:51:05;5.05;;;4.45;;
57832;SDS011;43667;53.036;6.740;2023-02-28T10:53:34;7.60;;;5.70;;
57832;SDS011;43667;53.036;6.740;2023-02-28T11:01:43;7.18;;;4.82;;
57832;SDS011;43667;53.036;6.740;2023-02-28T11:07:06;5.85;;;4.80;;
57832;SDS011;43667;53.036;6.740;2023-02-28T11:09:49;5.28;;;4.20;;
57832;SDS011;43667;53.036;6.740;2023-02-28T11:12:36;7.20;;;4.35;;
57832;SDS011;43667;53.036;6.740;2023-02-28T11:17:56;6.60;;;4.50;;
57832;SDS011;43667;53.036;6.740;2023-02-28T11:20:26;7.68;;;4.88;;
57832;SDS011;43667;53.036;6.740;2023-02-28T11:22:58;7.87;;;4.53;;
57832;SDS011;43667;53.036;6.740;2023-02-28T11:25:36;6.68;;;5.00;;
57832;SDS011;43667;53.036;6.740;2023-02-28T11:28:05;7.38;;;4.70;;
57832;SDS011;43667;53.036;6.740;2023-02-28T11:30:49;9.25;;;4.72;;
57832;SDS011;43667;53.036;6.740;2023-02-28T11:36:04;8.25;;;4.70;;
57832;SDS011;43667;53.036;6.740;2023-02-28T11:38:35;7.43;;;5.13;;
57832;SDS011;43667;53.036;6.740;2023-02-28T11:41:05;6.95;;;4.97;;
57832;SDS011;43667;53.036;6.740;2023-02-28T11:46:41;7.55;;;4.80;;
57832;SDS011;43667;53.036;6.740;2023-02-28T11:49:22;6.72;;;4.70;;
57832;SDS011;43667;53.036;6.740;2023-02-28T11:57:32;8.82;;;4.30;;
57832;SDS011;43667;53.036;6.740;2023-02-28T12:03:22;9.00;;;4.75;;
57832;SDS011;43667;53.036;6.740;2023-02-28T12:27:15;5.00;;;4.10;;
57832;SDS011;43667;53.036;6.740;2023-02-28T12:37:37;6.63;;;5.22;;
57832;SDS011;43667;53.036;6.740;2023-02-28T12:40:15;9.10;;;4.97;;
57832;SDS011;43667;53.036;6.740;2023-02-28T12:42:46;7.10;;;5.43;;
57832;SDS011;43667;53.036;6.740;2023-02-28T12:45:23;7.57;;;5.30;;
57832;SDS011;43667;53.036;6.740;2023-02-28T12:47:55;7.33;;;5.63;;
57832;SDS011;43667;53.036;6.740;2023-02-28T12:50:25;7.47;;;5.28;;
57832;SDS011;43667;53.036;6.740;2023-02-28T12:55:57;8.65;;;4.85;;
57832;SDS011;43667;53.036;6.740;2023-02-28T13:03:45;7.78;;;5.00;;
57832;SDS011;43667;53.036;6.740;2023-02-28T13:09:17;6.13;;;3.95;;
57832;SDS011;43667;53.036;6.740;2023-02-28T13:11:44;5.45;;;4.18;;
57832;SDS011;43667;53.036;6.740;2023-02-28T13:19:44;5.32;;;3.58;;
57832;SDS011;43667;53.036;6.740;2023-02-28T13:24:57;4.78;;;3.28;;
57832;SDS011;43667;53.036;6.740;2023-02-28T13:27:24;5.50;;;3.60;;
57832;SDS011;43667;53.036;6.740;2023-02-28T13:33:19;4.50;;;3.15;;
57832;SDS011;43667;53.036;6.740;2023-02-28T13:35:50;4.97;;;3.58;;
57832;SDS011;43667;53.036;6.740;2023-02-28T13:38:34;5.78;;;3.55;;
57832;SDS011;43667;53.036;6.740;2023-02-28T13:44:11;4.32;;;3.00;;
57832;SDS011;43667;53.036;6.740;2023-02-28T13:52:10;4.68;;;3.10;;
57832;SDS011;43667;53.036;6.740;2023-02-28T14:03:05;5.38;;;3.47;;
57832;SDS011;43667;53.036;6.740;2023-02-28T14:05:41;8.02;;;3.42;;
57832;SDS011;43667;53.036;6.740;2023-02-28T14:08:12;6.32;;;3.85;;
57832;SDS011;43667;53.036;6.740;2023-02-28T14:10:49;4.95;;;3.20;;
57832;SDS011;43667;53.036;6.740;2023-02-28T14:16:13;6.07;;;3.85;;
57832;SDS011;43667;53.036;6.740;2023-02-28T14:18:48;4.97;;;3.23;;
57832;SDS011;43667;53.036;6.740;2023-02-28T14:21:24;5.00;;;3.67;;
57832;SDS011;43667;53.036;6.740;2023-02-28T14:24:09;4.75;;;3.50;;
57832;SDS011;43667;53.036;6.740;2023-02-28T14:26:53;5.35;;;3.53;;
57832;SDS011;43667;53.036;6.740;2023-02-28T14:32:18;5.07;;;3.47;;
57832;SDS011;43667;53.036;6.740;2023-02-28T14:35:12;5.72;;;3.35;;
57832;SDS011;43667;53.036;6.740;2023-02-28T14:37:46;5.10;;;3.38;;
57832;SDS011;43667;53.036;6.740;2023-02-28T14:40:22;6.50;;;3.72;;
57832;SDS011;43667;53.036;6.740;2023-02-28T14:42:59;4.32;;;3.35;;
57832;SDS011;43667;53.036;6.740;2023-02-28T14:45:30;5.40;;;3.65;;
57832;SDS011;43667;53.036;6.740;2023-02-28T14:47:57;5.60;;;3.90;;
57832;SDS011;43667;53.036;6.740;2023-02-28T14:50:29;5.70;;;4.03;;
57832;SDS011;43667;53.036;6.740;2023-02-28T14:52:57;6.03;;;4.20;;
57832;SDS011;43667;53.036;6.740;2023-02-28T14:55:36;7.13;;;4.28;;
57832;SDS011;43667;53.036;6.740;2023-02-28T14:58:05;6.82;;;3.95;;
57832;SDS011;43667;53.036;6.740;2023-02-28T15:00:48;6.85;;;4.07;;
57832;SDS011;43667;53.036;6.740;2023-02-28T15:03:22;6.70;;;4.20;;
57832;SDS011;43667;53.036;6.740;2023-02-28T15:06:01;6.75;;;4.53;;
57832;SDS011;43667;53.036;6.740;2023-02-28T15:08:41;6.60;;;4.32;;
57832;SDS011;43667;53.036;6.740;2023-02-28T15:11:14;5.40;;;4.07;;
57832;SDS011;43667;53.036;6.740;2023-02-28T15:13:51;6.10;;;3.78;;
57832;SDS011;43667;53.036;6.740;2023-02-28T15:16:21;8.38;;;4.25;;
57832;SDS011;43667;53.036;6.740;2023-02-28T15:19:04;6.57;;;4.03;;
57832;SDS011;43667;53.036;6.740;2023-02-28T15:21:36;4.50;;;4.10;;
57832;SDS011;43667;53.036;6.740;2023-02-28T15:24:18;6.55;;;4.32;;
57832;SDS011;43667;53.036;6.740;2023-02-28T15:27:16;5.65;;;4.57;;
57832;SDS011;43667;53.036;6.740;2023-02-28T15:29:51;6.38;;;4.40;;
57832;SDS011;43667;53.036;6.740;2023-02-28T15:32:23;8.80;;;4.65;;
57832;SDS011;43667;53.036;6.740;2023-02-28T15:34:49;6.88;;;4.13;;
57832;SDS011;43667;53.036;6.740;2023-02-28T15:37:25;7.30;;;4.47;;
57832;SDS011;43667;53.036;6.740;2023-02-28T15:39:51;7.43;;;4.68;;
57832;SDS011;43667;53.036;6.740;2023-02-28T15:42:20;4.53;;;4.13;;
57832;SDS011;43667;53.036;6.740;2023-02-28T15:44:47;8.73;;;5.20;;
57832;SDS011;43667;53.036;6.740;2023-02-28T15:47:26;7.13;;;4.68;;
57832;SDS011;43667;53.036;6.740;2023-02-28T15:52:43;7.88;;;4.70;;
57832;SDS011;43667;53.036;6.740;2023-02-28T15:57:47;6.93;;;4.53;;
57832;SDS011;43667;53.036;6.740;2023-02-28T16:00:16;6.50;;;4.65;;
57832;SDS011;43667;53.036;6.740;2023-02-28T16:02:45;10.32;;;4.60;;
57832;SDS011;43667;53.036;6.740;2023-02-28T16:05:18;8.32;;;5.13;;
57832;SDS011;43667;53.036;6.740;2023-02-28T16:07:52;7.68;;;4.35;;
57832;SDS011;43667;53.036;6.740;2023-02-28T16:10:20;9.00;;;4.45;;
57832;SDS011;43667;53.036;6.740;2023-02-28T16:12:48;8.10;;;5.22;;
57832;SDS011;43667;53.036;6.740;2023-02-28T16:15:18;6.00;;;4.55;;
57832;SDS011;43667;53.036;6.740;2023-02-28T16:17:57;9.90;;;5.22;;
57832;SDS011;43667;53.036;6.740;2023-02-28T16:20:27;7.65;;;5.45;;
57832;SDS011;43667;53.036;6.740;2023-02-28T16:22:54;6.50;;;5.38;;
57832;SDS011;43667;53.036;6.740;2023-02-28T16:25:22;6.90;;;5.25;;
57832;SDS011;43667;53.036;6.740;2023-02-28T16:27:52;7.53;;;5.53;;
57832;SDS011;43667;53.036;6.740;2023-02-28T16:30:20;8.95;;;5.40;;
57832;SDS011;43667;53.036;6.740;2023-02-28T16:32:51;10.80;;;6.07;;
57832;SDS011;43667;53.036;6.740;2023-02-28T16:35:19;7.18;;;5.63;;
57832;SDS011;43667;53.036;6.740;2023-02-28T16:37:45;6.05;;;5.45;;
57832;SDS011;43667;53.036;6.740;2023-02-28T16:40:21;7.50;;;6.10;;
57832;SDS011;43667;53.036;6.740;2023-02-28T16:42:50;8.50;;;5.28;;
57832;SDS011;43667;53.036;6.740;2023-02-28T16:45:20;7.65;;;5.93;;
57832;SDS011;43667;53.036;6.740;2023-02-28T16:47:48;9.40;;;5.47;;
57832;SDS011;43667;53.036;6.740;2023-02-28T16:50:32;8.43;;;5.75;;
57832;SDS011;43667;53.036;6.740;2023-02-28T16:55:23;8.65;;;5.28;;
57832;SDS011;43667;53.036;6.740;2023-02-28T16:57:51;7.68;;;5.45;;
57832;SDS011;43667;53.036;6.740;2023-02-28T17:00:22;7.93;;;5.88;;
57832;SDS011;43667;53.036;6.740;2023-02-28T17:02:48;7.63;;;5.40;;
57832;SDS011;43667;53.036;6.740;2023-02-28T17:05:14;11.98;;;5.68;;
57832;SDS011;43667;53.036;6.740;2023-02-28T17:07:40;7.03;;;5.53;;
57832;SDS011;43667;53.036;6.740;2023-02-28T17:12:43;10.85;;;5.57;;
57832;SDS011;43667;53.036;6.740;2023-02-28T17:15:09;8.60;;;6.15;;
57832;SDS011;43667;53.036;6.740;2023-02-28T17:17:36;11.65;;;6.63;;
57832;SDS011;43667;53.036;6.740;2023-02-28T17:20:03;8.27;;;6.13;;
57832;SDS011;43667;53.036;6.740;2023-02-28T17:22:29;9.07;;;6.60;;
57832;SDS011;43667;53.036;6.740;2023-02-28T17:24:55;7.75;;;6.35;;
57832;SDS011;43667;53.036;6.740;2023-02-28T17:27:21;8.50;;;6.90;;